Terminal Aerodrome Forecast
Issued by NWS Twin Cities, MN

Home | Current Version | Previous Version | Text Only | Print | Product List | Glossary Off
Versions: 1 2 3 4 5 6 7 8 9 10 11 12 13 14 15 16 17 18 19 20 21 22 23 24 25 26 27 28

000
FTUS43 KMPX 161100 RRA
TAFMSP
TAF
KMSP 161138Z 1612/1718 09020G27KT P6SM VCSH OVC050
     FM161500 11021G28KT P6SM VCSH OVC035
     FM161800 08013G22KT 4SM -RA OVC015
     FM170200 01015G23KT 2SM -RASN OVC008
     FM170500 34014G20KT 4SM -SN OVC010
     FM170800 34012G20KT P6SM OVC015
     FM171200 32011KT P6SM SCT025=

USA.gov is the U.S. government's official web portal to all federal, state and local government web resources and services.